createdAt,value
2023-03-22T00:00:30.580Z,9.64
2023-03-22T00:02:58.360Z,9.90
2023-03-22T00:05:25.992Z,9.76
2023-03-22T00:07:58.282Z,9.81
2023-03-22T00:10:28.871Z,9.81
2023-03-22T00:12:56.272Z,9.46
2023-03-22T00:15:23.763Z,9.41
2023-03-22T00:17:52.103Z,9.43
2023-03-22T00:20:20.823Z,9.31
2023-03-22T00:22:48.217Z,9.24
2023-03-22T00:25:16.840Z,9.25
2023-03-22T00:27:44.318Z,9.22
2023-03-22T00:30:12.090Z,9.13
2023-03-22T00:32:40.056Z,9.24
2023-03-22T00:35:08.074Z,9.38
2023-03-22T00:37:38.761Z,9.50
2023-03-22T00:40:14.025Z,9.30
2023-03-22T00:42:42.008Z,9.32
2023-03-22T00:45:11.633Z,9.52
2023-03-22T00:47:39.365Z,9.28
2023-03-22T00:50:08.017Z,9.39
2023-03-22T00:52:36.736Z,9.28
2023-03-22T00:55:04.211Z,9.20
2023-03-22T00:57:31.432Z,9.18
2023-03-22T00:59:59.112Z,9.03
2023-03-22T01:02:29.903Z,9.06
2023-03-22T01:04:57.981Z,9.03
2023-03-22T01:07:26.422Z,8.69
2023-03-22T01:09:54.417Z,8.66
2023-03-22T01:12:21.734Z,8.82
2023-03-22T01:14:49.419Z,8.89
2023-03-22T01:17:16.800Z,8.93
2023-03-22T01:19:44.144Z,8.67
2023-03-22T01:22:11.939Z,8.58
2023-03-22T01:24:39.439Z,8.42
2023-03-22T01:27:07.405Z,8.40
2023-03-22T01:29:35.623Z,8.27
2023-03-22T01:32:04.311Z,8.30
2023-03-22T01:34:31.760Z,8.29
2023-03-22T01:36:59.645Z,8.21
2023-03-22T01:39:27.566Z,8.25
2023-03-22T01:41:55.778Z,8.31
2023-03-22T01:44:24.106Z,8.30
2023-03-22T01:46:52.058Z,8.44
2023-03-22T01:49:29.784Z,8.50
2023-03-22T01:52:02.502Z,8.54
2023-03-22T01:54:36.417Z,8.55
2023-03-22T01:57:06.982Z,8.57
2023-03-22T01:59:35.752Z,8.42
2023-03-22T02:02:04.527Z,8.46
2023-03-22T02:04:35.799Z,8.57
2023-03-22T02:07:10.540Z,8.55
2023-03-22T02:09:41.548Z,8.70
2023-03-22T02:12:41.339Z,8.75
2023-03-22T02:15:38.438Z,8.72
2023-03-22T02:18:35.220Z,8.57
2023-03-22T02:21:18.845Z,8.69
2023-03-22T02:23:58.228Z,8.51
2023-03-22T02:26:50.882Z,8.50
2023-03-22T02:29:36.876Z,8.58
2023-03-22T02:32:40.515Z,8.65
2023-03-22T02:35:25.196Z,8.64
2023-03-22T02:38:27.170Z,8.74
2023-03-22T02:41:00.710Z,8.97
2023-03-22T02:44:10.459Z,9.12
2023-03-22T02:46:46.722Z,8.79
2023-03-22T02:49:30.860Z,8.76
2023-03-22T02:52:26.979Z,8.87
2023-03-22T02:55:12.439Z,8.77
2023-03-22T02:57:49.088Z,8.64
2023-03-22T03:00:19.382Z,8.61
2023-03-22T03:02:51.635Z,8.53
2023-03-22T03:05:21.694Z,8.65
2023-03-22T03:07:53.333Z,8.57
2023-03-22T03:10:22.665Z,8.56
2023-03-22T03:12:50.137Z,8.49
2023-03-22T03:15:23.901Z,8.47
2023-03-22T03:18:01.422Z,8.39
2023-03-22T03:21:21.353Z,8.50
2023-03-22T03:24:00.031Z,8.75
2023-03-22T03:27:10.009Z,8.78
2023-03-22T03:30:00.749Z,8.77
2023-03-22T03:32:54.796Z,8.61
2023-03-22T03:35:28.250Z,8.74
2023-03-22T03:38:10.079Z,8.61
2023-03-22T03:40:45.742Z,8.51
2023-03-22T03:43:14.541Z,8.41
2023-03-22T03:45:43.014Z,8.35
2023-03-22T03:48:18.628Z,8.33
2023-03-22T03:50:50.456Z,8.33
2023-03-22T03:53:18.265Z,8.29
2023-03-22T03:55:46.403Z,8.31
2023-03-22T03:58:13.910Z,8.38
2023-03-22T04:00:42.135Z,8.53
2023-03-22T04:03:10.330Z,8.44
2023-03-22T04:05:39.358Z,8.66
2023-03-22T04:08:06.748Z,8.59
2023-03-22T04:10:34.550Z,8.36
2023-03-22T04:13:02.185Z,8.35
2023-03-22T04:15:29.816Z,8.42
2023-03-22T04:17:57.663Z,8.44
2023-03-22T04:20:26.448Z,8.19
2023-03-22T04:22:59.800Z,8.20
2023-03-22T04:25:38.486Z,8.31
2023-03-22T04:28:07.680Z,8.37
2023-03-22T04:30:39.056Z,8.55
2023-03-22T04:33:08.722Z,8.46
2023-03-22T04:35:56.001Z,8.33
2023-03-22T04:38:28.057Z,8.27
2023-03-22T04:40:56.136Z,8.23
2023-03-22T04:43:24.665Z,8.42
2023-03-22T04:45:55.060Z,8.67
2023-03-22T04:48:23.773Z,8.49
2023-03-22T04:50:53.611Z,8.16
2023-03-22T04:53:27.365Z,8.32
2023-03-22T04:55:57.324Z,8.20
2023-03-22T04:58:40.514Z,8.15
2023-03-22T05:01:10.785Z,8.03
2023-03-22T05:03:43.354Z,8.06
2023-03-22T05:06:11.709Z,8.20
2023-03-22T05:08:40.538Z,8.22
2023-03-22T05:11:11.021Z,8.31
2023-03-22T05:13:39.110Z,8.21
2023-03-22T05:16:07.567Z,8.15
2023-03-22T05:18:42.576Z,8.14
2023-03-22T05:21:28.880Z,8.13
2023-03-22T05:23:58.809Z,8.13
2023-03-22T05:26:27.071Z,8.30
2023-03-22T05:28:56.051Z,8.28
2023-03-22T05:31:24.871Z,8.25
2023-03-22T05:33:53.443Z,8.26
2023-03-22T05:36:23.097Z,8.21
2023-03-22T05:38:52.601Z,8.23
2023-03-22T05:41:20.267Z,8.27
2023-03-22T05:43:47.827Z,8.44
2023-03-22T05:46:15.361Z,8.41
2023-03-22T05:48:44.914Z,8.36
2023-03-22T05:51:17.806Z,8.39
2023-03-22T05:53:47.429Z,8.46
2023-03-22T05:56:15.690Z,8.39
2023-03-22T05:58:43.653Z,8.23
2023-03-22T06:01:12.830Z,8.29
2023-03-22T06:03:46.748Z,8.51
2023-03-22T06:06:22.992Z,8.45
2023-03-22T06:09:07.286Z,8.44
2023-03-22T06:11:47.077Z,8.47
2023-03-22T06:14:16.336Z,8.35
2023-03-22T06:16:44.967Z,8.48
2023-03-22T06:19:13.162Z,8.64
2023-03-22T06:21:58.562Z,8.64
2023-03-22T06:24:29.626Z,8.71
2023-03-22T06:26:58.008Z,8.73
2023-03-22T06:29:27.856Z,8.84
2023-03-22T06:32:01.000Z,8.84
2023-03-22T06:34:33.961Z,8.87
2023-03-22T06:37:05.222Z,8.93
2023-03-22T06:39:36.750Z,8.85
2023-03-22T06:42:05.076Z,8.86
2023-03-22T06:44:33.966Z,8.95
2023-03-22T06:47:07.413Z,8.99
2023-03-22T06:49:40.415Z,8.90
2023-03-22T06:52:20.401Z,9.09
2023-03-22T06:54:49.589Z,9.17
2023-03-22T06:57:20.147Z,9.10
2023-03-22T06:59:49.248Z,9.14
2023-03-22T07:02:22.393Z,9.04
2023-03-22T07:04:53.229Z,9.19
2023-03-22T07:07:20.812Z,9.14
2023-03-22T07:09:54.330Z,9.16
2023-03-22T07:12:22.265Z,9.23
2023-03-22T07:14:51.105Z,9.40
2023-03-22T07:17:19.865Z,9.25
2023-03-22T07:19:48.347Z,9.15
2023-03-22T07:22:18.311Z,9.10
2023-03-22T07:24:56.684Z,9.10
2023-03-22T07:27:28.894Z,9.02
2023-03-22T07:30:01.729Z,9.02
2023-03-22T07:32:35.086Z,8.94
2023-03-22T07:35:07.003Z,9.04
2023-03-22T07:37:35.166Z,8.94
2023-03-22T07:40:14.564Z,8.93
2023-03-22T07:42:44.925Z,8.82
2023-03-22T07:45:20.962Z,8.79
2023-03-22T07:47:56.396Z,8.73
2023-03-22T07:50:29.744Z,8.77
2023-03-22T07:52:59.601Z,8.58
2023-03-22T07:55:34.959Z,8.56
2023-03-22T07:58:03.259Z,8.61
2023-03-22T08:00:31.174Z,8.65
2023-03-22T08:03:04.478Z,8.62
2023-03-22T08:05:33.492Z,8.52
2023-03-22T08:10:52.812Z,8.60
2023-03-22T08:13:36.791Z,8.74
2023-03-22T08:16:06.845Z,8.76
2023-03-22T08:18:42.146Z,8.79
2023-03-22T08:21:12.387Z,8.90
2023-03-22T08:23:42.058Z,8.94
2023-03-22T08:26:13.049Z,8.70
2023-03-22T08:28:40.971Z,8.82
2023-03-22T08:31:16.721Z,8.79
2023-03-22T08:33:46.547Z,8.78
2023-03-22T08:36:19.600Z,8.80
2023-03-22T08:39:01.567Z,8.89
2023-03-22T08:41:52.394Z,8.92
2023-03-22T08:44:32.151Z,8.81
2023-03-22T08:47:03.222Z,8.94
2023-03-22T08:49:31.992Z,8.99
2023-03-22T08:52:01.353Z,9.11
2023-03-22T08:54:37.573Z,9.14
2023-03-22T08:57:11.364Z,9.23
2023-03-22T08:59:40.124Z,9.20
2023-03-22T09:02:12.356Z,9.12
2023-03-22T09:04:47.727Z,9.24
2023-03-22T09:07:27.777Z,9.09
2023-03-22T09:09:55.964Z,8.99
2023-03-22T09:12:27.795Z,9.10
2023-03-22T09:15:02.278Z,9.13
2023-03-22T09:17:39.110Z,9.18
2023-03-22T09:20:13.067Z,9.20
2023-03-22T09:22:45.025Z,9.31
2023-03-22T09:25:14.139Z,9.14
2023-03-22T09:27:56.251Z,9.22
2023-03-22T09:30:23.813Z,9.29
2023-03-22T09:33:05.622Z,9.39
2023-03-22T09:35:34.141Z,9.32
2023-03-22T09:38:09.179Z,9.38
2023-03-22T09:40:52.423Z,9.24
2023-03-22T09:43:22.004Z,9.24
2023-03-22T09:46:19.707Z,9.31
2023-03-22T09:49:24.227Z,9.21
2023-03-22T09:52:00.020Z,9.37
2023-03-22T09:54:31.663Z,9.33
2023-03-22T09:57:36.631Z,9.17
2023-03-22T10:00:23.244Z,9.36
2023-03-22T10:03:24.935Z,9.31
2023-03-22T10:06:05.513Z,9.37
2023-03-22T10:08:55.889Z,9.42
2023-03-22T10:11:46.804Z,9.43
2023-03-22T10:14:17.451Z,9.41
2023-03-22T10:16:45.818Z,9.45
2023-03-22T10:19:36.993Z,9.47
2023-03-22T10:22:48.113Z,9.44
2023-03-22T10:25:24.558Z,9.27
2023-03-22T10:27:54.037Z,9.32
2023-03-22T10:30:24.528Z,9.47
2023-03-22T10:33:04.907Z,9.65
2023-03-22T10:35:37.453Z,9.39
2023-03-22T10:38:11.335Z,9.34
2023-03-22T10:40:48.658Z,9.32
2023-03-22T10:43:23.895Z,9.58
2023-03-22T10:45:57.853Z,9.66
2023-03-22T10:48:35.018Z,9.70
2023-03-22T10:51:15.846Z,9.64
2023-03-22T10:53:48.197Z,9.46
2023-03-22T10:56:21.601Z,9.47
2023-03-22T10:58:50.091Z,9.55
2023-03-22T11:01:43.060Z,9.63
2023-03-22T11:04:18.390Z,9.81
2023-03-22T11:06:56.054Z,9.84
2023-03-22T11:09:24.829Z,9.79
2023-03-22T11:12:00.464Z,9.79
2023-03-22T11:14:30.887Z,9.92
2023-03-22T11:17:06.369Z,9.89
2023-03-22T11:19:52.830Z,9.90
2023-03-22T11:22:36.716Z,9.81
2023-03-22T11:25:13.631Z,9.88
2023-03-22T11:27:54.370Z,9.76
2023-03-22T11:30:27.299Z,9.61
2023-03-22T11:33:12.900Z,9.43
2023-03-22T11:35:45.983Z,9.54
2023-03-22T11:38:33.908Z,9.55
2023-03-22T11:41:24.188Z,9.48
2023-03-22T11:43:57.085Z,9.67
2023-03-22T11:46:25.587Z,9.81
2023-03-22T11:49:31.907Z,9.77
2023-03-22T11:52:10.307Z,9.69
2023-03-22T11:58:07.711Z,9.55
2023-03-22T12:00:41.656Z,9.67
2023-03-22T12:03:38.915Z,9.77
2023-03-22T12:06:42.512Z,9.38
2023-03-22T12:09:29.121Z,9.75
2023-03-22T12:11:59.786Z,9.60
2023-03-22T12:14:34.838Z,9.54
2023-03-22T12:17:10.826Z,9.55
2023-03-22T12:19:38.492Z,9.65
2023-03-22T12:22:18.995Z,9.70
2023-03-22T12:24:46.873Z,9.87
2023-03-22T12:27:28.657Z,9.86
2023-03-22T12:30:12.982Z,9.91
2023-03-22T12:32:58.912Z,10.03
2023-03-22T12:35:30.859Z,10.12
2023-03-22T12:38:01.927Z,10.24
2023-03-22T12:40:34.729Z,10.15
2023-03-22T12:43:08.060Z,10.17
2023-03-22T12:45:43.823Z,10.13
2023-03-22T12:48:46.661Z,10.19
2023-03-22T12:51:15.533Z,9.79
2023-03-22T12:53:50.394Z,9.91
2023-03-22T12:56:22.261Z,9.96
2023-03-22T12:58:52.663Z,9.95
2023-03-22T13:01:40.010Z,10.11
2023-03-22T13:04:27.729Z,10.09
2023-03-22T13:07:15.649Z,9.97
2023-03-22T13:09:45.808Z,9.97
2023-03-22T13:12:19.154Z,9.90
2023-03-22T13:14:49.420Z,9.86
2023-03-22T13:17:23.331Z,9.86
2023-03-22T13:20:00.859Z,9.80
2023-03-22T13:22:38.066Z,9.81
2023-03-22T13:25:14.646Z,9.85
2023-03-22T13:28:03.714Z,9.82
2023-03-22T13:30:48.149Z,9.92
2023-03-22T13:33:25.597Z,9.91
2023-03-22T13:41:31.624Z,10.69
2023-03-22T13:44:02.675Z,10.69
2023-03-22T13:46:45.869Z,10.30
2023-03-22T13:49:32.176Z,10.11
2023-03-22T13:52:02.309Z,10.21
2023-03-22T14:18:07.100Z,9.89
2023-03-22T14:20:37.454Z,9.89
